Aérodrome :







RETROUVEZ-NOUS SUR...

 
LOGIN :

S'inscrire | Disclaimer

   EN    FR    IT 

 









Légende :    VFR   VFR Marginal   IFR   IFR Intensif   IFR Très Intensif
Visi : 
Plafond : 
>= 8 km
>= 3000ft
5 à 8 km
1000 à 3000 ft
1500m à 5 km
500 à 1000 ft
800 à 1500m
200 à 500 ft
< 800m
< 200 ft
Symboles :   Orages  Brouillard  Fortes neiges  Fortes précipitations  Vent > 20 kt






- Altitude de l'aérodrome : 35 ft
- Code IATA : YGR


CYGR - ëles-de-la-Madeleine

DERNIER METAR :
  • 081200Z 36004KT 20SM VCSH FEW020 BKN270 M00/M03 A2962 RMK CU2CI3 SLP033

METARs EXPIRÉS :
  • 081117Z 24011KT 6SM -SHSN SCT020 BKN070 M00/M03 A2962 RMK CU4AC3 VIS N-SE 11/2 SLP031
  • 081100Z 22009KT 8SM VCSH SCT040 BKN070 M01/M03 A2961 RMK CU3AC4 SLP030
  • 081027Z 22009KT 12SM SCT040 BKN070 M01/M04 A2961 RMK SC4AC3 SLP030
  • 081000Z 21007KT 8SM -SN OVC070 M01/M04 A2961 RMK AC8 SLP029

TAF TAF CYGR
Valide du 08 à 11h jusqu'au 08 à 23h UTC


081038Z 0811/0823 21008KT P6SM OVC070
TEMPO 0811/0814 5SM -SHSN OVC020
PROB30 0811/0814 2SM -SHSN
FM081400 36010KT P6SM OVC040
TEMPO 0814/0816 5SM -SHSN OVC020
PROB30 0814/0816 2SM -SHSN
FM081600 34010KT P6SM FEW040 RMK NXT FCST BY 081400Z



MET'MAP, la Météo Aéronautique d'un coup d'oeil ! - Copyright ORBIFLY Décembre 2007 - Disclaimer

ORBIFLY MET'MAP TEAM :

Programmation & Développement : Alexandra Zaïnal
Sur une idée originale de : Baudouin d'Aumeries
Assistance à la programmation : Marc-Olivier Méhu
Soutien technique & logistique : Manuel Goepfert

Contact : metmap@orbifly.com




SOURCES & CREDITS :

   NOAA